createdAt,value
2019-05-12T00:00:24.536Z,6.43
2019-05-12T00:02:52.736Z,6.42
2019-05-12T00:05:20.959Z,6.43
2019-05-12T00:07:49.151Z,6.42
2019-05-12T00:10:17.842Z,6.39
2019-05-12T00:12:48.175Z,6.42
2019-05-12T00:15:18.803Z,6.42
2019-05-12T00:17:48.076Z,6.35
2019-05-12T00:20:18.273Z,6.36
2019-05-12T00:22:48.651Z,6.33
2019-05-12T00:25:18.086Z,6.35
2019-05-12T00:27:48.595Z,6.31
2019-05-12T00:30:18.531Z,6.26
2019-05-12T00:32:47.832Z,6.29
2019-05-12T00:35:18.143Z,6.29
2019-05-12T00:37:48.538Z,6.28
2019-05-12T00:40:15.875Z,6.29
2019-05-12T00:42:44.067Z,6.26
2019-05-12T00:45:12.284Z,6.23
2019-05-12T00:47:40.533Z,6.20
2019-05-12T00:50:08.695Z,6.24
2019-05-12T00:52:38.563Z,6.27
2019-05-12T00:55:07.891Z,6.30
2019-05-12T00:57:38.304Z,6.31
2019-05-12T01:00:08.782Z,6.24
2019-05-12T01:02:37.963Z,6.15
2019-05-12T01:05:08.620Z,6.13
2019-05-12T01:07:38.301Z,6.14
2019-05-12T01:10:08.626Z,6.11
2019-05-12T01:12:38.169Z,6.13
2019-05-12T01:15:07.599Z,6.11
2019-05-12T01:17:35.776Z,6.13
2019-05-12T01:20:05.815Z,6.12
2019-05-12T01:22:34.065Z,6.03
2019-05-12T01:25:02.278Z,5.96
2019-05-12T01:27:30.496Z,5.98
2019-05-12T01:29:58.696Z,5.95
2019-05-12T01:32:28.826Z,5.98
2019-05-12T01:34:57.790Z,6.00
2019-05-12T01:37:27.997Z,6.01
2019-05-12T01:39:59.750Z,5.96
2019-05-12T01:42:25.914Z,6.01
2019-05-12T01:44:54.152Z,5.93
2019-05-12T01:47:22.375Z,5.96
2019-05-12T01:49:50.574Z,6.00
2019-05-12T01:52:18.810Z,5.95
2019-05-12T01:54:48.319Z,5.93
2019-05-12T01:57:18.760Z,5.94
2019-05-12T01:59:48.394Z,5.89
2019-05-12T02:02:17.917Z,5.90
2019-05-12T02:05:02.980Z,5.91
2019-05-12T02:07:32.839Z,5.92
2019-05-12T02:10:01.042Z,5.90
2019-05-12T02:12:29.250Z,5.89
2019-05-12T02:14:58.914Z,5.85
2019-05-12T02:17:28.325Z,5.85
2019-05-12T02:19:58.671Z,5.87
2019-05-12T02:22:27.866Z,5.74
2019-05-12T02:24:58.313Z,5.72
2019-05-12T02:27:28.306Z,5.71
2019-05-12T02:29:58.465Z,5.70
2019-05-12T02:32:33.217Z,5.72
2019-05-12T02:34:56.049Z,5.65
2019-05-12T02:37:26.262Z,5.60
2019-05-12T02:39:55.609Z,5.51
2019-05-12T02:42:24.504Z,5.54
2019-05-12T02:44:55.216Z,5.55
2019-05-12T02:47:24.135Z,5.55
2019-05-12T02:49:54.468Z,5.57
2019-05-12T02:52:24.929Z,5.55
2019-05-12T02:54:59.566Z,5.62
2019-05-12T02:57:25.497Z,5.61
2019-05-12T02:59:54.050Z,5.56
2019-05-12T03:02:24.399Z,5.59
2019-05-12T03:04:54.779Z,5.60
2019-05-12T03:07:25.483Z,5.57
2019-05-12T03:09:55.055Z,5.52
2019-05-12T03:12:25.627Z,5.49
2019-05-12T03:14:54.461Z,5.49
2019-05-12T03:17:25.172Z,5.49
2019-05-12T03:19:55.604Z,5.43
2019-05-12T03:22:25.236Z,5.37
2019-05-12T03:25:08.086Z,5.38
2019-05-12T03:27:25.686Z,5.38
2019-05-12T03:29:55.050Z,5.35
2019-05-12T03:32:27.190Z,5.33
2019-05-12T03:34:57.325Z,5.34
2019-05-12T03:37:30.867Z,5.38
2019-05-12T03:39:54.522Z,5.42
2019-05-12T03:42:25.165Z,5.45
2019-05-12T03:44:54.607Z,5.46
2019-05-12T03:47:24.789Z,5.41
2019-05-12T03:49:54.448Z,5.41
2019-05-12T03:52:24.342Z,5.43
2019-05-12T03:54:51.757Z,5.44
2019-05-12T03:57:19.951Z,5.45
2019-05-12T03:59:48.190Z,5.48
2019-05-12T04:02:16.396Z,5.51
2019-05-12T04:04:45.403Z,5.52
2019-05-12T04:07:15.238Z,5.53
2019-05-12T04:09:45.101Z,5.40
2019-05-12T04:12:14.801Z,5.39
2019-05-12T04:14:44.950Z,5.43
2019-05-12T04:17:15.008Z,5.40
2019-05-12T04:19:44.756Z,5.45
2019-05-12T04:22:15.362Z,5.47
2019-05-12T04:24:44.594Z,5.51
2019-05-12T04:27:15.069Z,5.51
2019-05-12T04:29:44.139Z,5.43
2019-05-12T04:32:14.322Z,5.36
2019-05-12T04:34:44.673Z,5.39
2019-05-12T04:37:14.876Z,5.44
2019-05-12T04:39:44.731Z,5.49
2019-05-12T04:42:14.836Z,5.51
2019-05-12T04:44:44.841Z,5.48
2019-05-12T04:47:14.619Z,5.55
2019-05-12T04:49:45.000Z,5.58
2019-05-12T04:52:15.255Z,5.53
2019-05-12T04:54:44.478Z,5.49
2019-05-12T04:57:14.807Z,5.56
2019-05-12T04:59:44.852Z,5.63
2019-05-12T05:02:15.062Z,5.67
2019-05-12T05:04:44.087Z,5.72
2019-05-12T05:07:14.827Z,5.74
2019-05-12T05:09:44.217Z,5.75
2019-05-12T05:12:13.967Z,5.77
2019-05-12T05:14:44.378Z,5.80
2019-05-12T05:17:11.442Z,5.80
2019-05-12T05:19:39.659Z,5.82
2019-05-12T05:22:07.851Z,5.83
2019-05-12T05:24:36.053Z,5.71
2019-05-12T05:27:04.518Z,5.85
2019-05-12T05:29:33.610Z,5.99
2019-05-12T05:32:03.554Z,5.95
2019-05-12T05:34:34.128Z,6.09
2019-05-12T05:37:01.783Z,6.16
2019-05-12T05:39:29.987Z,6.11
2019-05-12T05:41:58.187Z,6.03
2019-05-12T05:44:29.201Z,6.13
2019-05-12T05:46:56.826Z,6.24
2019-05-12T05:49:25.021Z,6.26
2019-05-12T05:51:57.193Z,6.31
2019-05-12T05:54:31.325Z,6.23
2019-05-12T05:57:01.851Z,6.27
2019-05-12T05:59:31.180Z,6.40
2019-05-12T06:01:54.861Z,6.37
2019-05-12T06:04:23.766Z,6.39
2019-05-12T06:06:55.382Z,6.56
2019-05-12T06:09:23.560Z,6.66
2019-05-12T06:11:54.041Z,6.89
2019-05-12T06:14:23.547Z,6.95
2019-05-12T06:16:53.775Z,6.99
2019-05-12T06:19:24.076Z,7.16
2019-05-12T06:21:53.405Z,7.22
2019-05-12T06:24:23.779Z,7.37
2019-05-12T06:27:00.020Z,7.40
2019-05-12T06:29:22.721Z,7.52
2019-05-12T06:31:51.426Z,7.62
2019-05-12T06:34:21.041Z,7.79
2019-05-12T06:36:49.515Z,7.64
2019-05-12T06:39:20.517Z,7.66
2019-05-12T06:41:47.654Z,7.70
2019-05-12T06:44:19.328Z,7.61
2019-05-12T06:46:45.788Z,7.61
2019-05-12T06:49:17.462Z,7.55
2019-05-12T06:51:44.529Z,7.60
2019-05-12T06:54:15.137Z,7.80
2019-05-12T06:56:43.556Z,7.81
2019-05-12T06:59:14.491Z,7.74
2019-05-12T07:01:41.768Z,7.81
2019-05-12T07:04:11.593Z,7.90
2019-05-12T07:06:39.800Z,7.97
2019-05-12T07:09:09.979Z,8.14
2019-05-12T07:11:44.708Z,8.22
2019-05-12T07:14:19.026Z,8.13
2019-05-12T07:16:37.793Z,8.04
2019-05-12T07:19:16.039Z,7.85
2019-05-12T07:21:35.903Z,7.90
2019-05-12T07:24:06.737Z,7.98
2019-05-12T07:26:34.044Z,8.34
2019-05-12T07:29:04.225Z,8.52
2019-05-12T07:31:33.734Z,8.59
2019-05-12T07:34:05.298Z,8.61
2019-05-12T07:36:33.356Z,8.41
2019-05-12T07:39:04.307Z,8.72
2019-05-12T07:41:34.025Z,9.15
2019-05-12T07:44:03.565Z,9.31
2019-05-12T07:46:34.053Z,9.30
2019-05-12T07:49:03.753Z,9.50
2019-05-12T07:51:38.417Z,9.36
2019-05-12T07:54:03.885Z,9.29
2019-05-12T07:56:35.238Z,9.21
2019-05-12T07:59:01.330Z,9.48
2019-05-12T08:01:29.520Z,9.68
2019-05-12T08:04:01.203Z,9.84
2019-05-12T08:06:32.665Z,9.68
2019-05-12T08:08:59.003Z,9.75
2019-05-12T08:11:28.763Z,9.68
2019-05-12T08:13:57.311Z,9.65
2019-05-12T08:16:30.229Z,9.67
2019-05-12T08:18:55.476Z,9.41
2019-05-12T08:21:24.256Z,9.58
2019-05-12T08:23:53.405Z,9.34
2019-05-12T08:26:23.491Z,9.27
2019-05-12T08:28:53.552Z,9.56
2019-05-12T08:31:23.505Z,9.82
2019-05-12T08:33:53.689Z,10.11
2019-05-12T08:36:23.456Z,10.02
2019-05-12T08:38:53.496Z,9.62
2019-05-12T08:41:23.376Z,9.58
2019-05-12T08:43:57.405Z,9.71
2019-05-12T08:46:21.157Z,9.79
2019-05-12T08:48:51.593Z,10.15
2019-05-12T08:51:20.148Z,10.33
2019-05-12T08:53:56.246Z,10.20
2019-05-12T08:56:19.872Z,10.14
2019-05-12T08:58:51.506Z,10.27
2019-05-12T09:01:20.454Z,10.56
2019-05-12T09:03:48.214Z,10.68
2019-05-12T09:06:19.622Z,10.34
2019-05-12T09:08:49.365Z,10.24
2019-05-12T09:11:16.294Z,10.64
2019-05-12T09:13:44.573Z,10.82
2019-05-12T09:16:13.882Z,10.73
2019-05-12T09:18:43.547Z,10.57
2019-05-12T09:21:17.883Z,10.91
2019-05-12T09:23:46.066Z,11.12
2019-05-12T09:26:18.489Z,11.31
2019-05-12T09:28:49.407Z,11.29
2019-05-12T09:31:14.268Z,11.32
2019-05-12T09:33:44.571Z,11.57
2019-05-12T09:36:19.809Z,12.08
2019-05-12T09:38:44.008Z,11.97
2019-05-12T09:41:13.950Z,12.18
2019-05-12T09:43:46.279Z,11.98
2019-05-12T09:46:14.225Z,12.45
2019-05-12T09:48:46.881Z,12.42
2019-05-12T09:51:13.375Z,12.40
2019-05-12T09:53:50.395Z,12.52
2019-05-12T09:56:13.756Z,12.44
2019-05-12T09:58:43.623Z,12.13
2019-05-12T10:01:13.984Z,12.04
2019-05-12T10:03:43.843Z,12.13
2019-05-12T10:06:18.023Z,12.64
2019-05-12T10:08:43.422Z,12.67
2019-05-12T10:11:16.458Z,12.91
2019-05-12T10:13:41.793Z,12.46
2019-05-12T10:16:10.009Z,12.83
2019-05-12T10:18:45.343Z,13.12
2019-05-12T10:21:10.037Z,13.23
2019-05-12T10:23:38.065Z,12.91
2019-05-12T10:26:09.978Z,12.77
2019-05-12T10:28:36.202Z,12.86
2019-05-12T10:31:04.416Z,12.92
2019-05-12T10:33:33.789Z,13.20
2019-05-12T10:36:06.872Z,12.74
2019-05-12T10:38:34.231Z,12.86
2019-05-12T10:41:03.845Z,13.45
2019-05-12T10:43:34.088Z,14.03
2019-05-12T10:46:04.015Z,14.08
2019-05-12T10:48:33.876Z,13.66
2019-05-12T10:51:01.872Z,13.29
2019-05-12T10:53:30.041Z,13.56
2019-05-12T10:55:58.265Z,14.06
2019-05-12T10:58:26.498Z,14.38
2019-05-12T11:00:58.988Z,13.84
2019-05-12T11:03:24.633Z,13.52
2019-05-12T11:05:56.660Z,13.69
2019-05-12T11:08:24.725Z,14.19
2019-05-12T11:10:57.655Z,14.75
2019-05-12T11:13:23.380Z,14.69
2019-05-12T11:15:51.633Z,14.32
2019-05-12T11:18:26.131Z,14.76
2019-05-12T11:20:49.818Z,14.54
2019-05-12T11:23:18.039Z,14.17
2019-05-12T11:25:46.239Z,14.13
2019-05-12T11:28:14.495Z,14.31
2019-05-12T11:30:43.685Z,14.56
2019-05-12T11:33:11.984Z,15.15
2019-05-12T11:35:40.181Z,15.22
2019-05-12T11:38:08.403Z,14.83
2019-05-12T11:40:36.618Z,13.92
2019-05-12T11:43:04.861Z,14.03
2019-05-12T11:45:33.661Z,14.40
2019-05-12T11:48:05.988Z,15.03
2019-05-12T11:50:32.079Z,14.77
2019-05-12T11:53:00.292Z,13.91
2019-05-12T11:55:31.513Z,14.03
2019-05-12T11:58:00.351Z,14.17
2019-05-12T12:00:30.000Z,14.62
2019-05-12T12:02:58.211Z,14.91
2019-05-12T12:05:26.403Z,15.73
2019-05-12T12:07:56.179Z,16.12
2019-05-12T12:10:29.272Z,16.67
2019-05-12T12:12:54.464Z,16.12
2019-05-12T12:15:26.336Z,15.50
2019-05-12T12:17:53.597Z,15.65
2019-05-12T12:20:24.109Z,15.51
2019-05-12T12:22:54.087Z,15.58
2019-05-12T12:25:23.531Z,15.62
2019-05-12T12:27:53.715Z,15.71
2019-05-12T12:30:23.680Z,16.19
2019-05-12T12:32:58.751Z,16.65
2019-05-12T12:35:23.341Z,16.77
2019-05-12T12:37:53.933Z,16.97
2019-05-12T12:40:21.487Z,17.40
2019-05-12T12:42:50.439Z,17.01
2019-05-12T12:45:30.365Z,16.06
2019-05-12T12:47:59.181Z,15.64
2019-05-12T12:50:30.470Z,15.25
2019-05-12T12:52:57.308Z,14.98
2019-05-12T12:55:25.521Z,15.24
2019-05-12T12:57:53.737Z,15.68
2019-05-12T13:00:31.783Z,16.27
2019-05-12T13:02:51.861Z,16.63
2019-05-12T13:05:20.077Z,16.58
2019-05-12T13:07:48.285Z,16.29
2019-05-12T13:10:17.176Z,16.09
2019-05-12T13:12:50.436Z,16.47
2019-05-12T13:15:15.309Z,16.49
2019-05-12T13:17:44.724Z,17.03
2019-05-12T13:20:13.778Z,17.03
2019-05-12T13:22:44.225Z,16.63
2019-05-12T13:25:14.018Z,16.93
2019-05-12T13:27:41.834Z,16.75
2019-05-12T13:30:18.514Z,17.20
2019-05-12T13:32:40.045Z,17.31
2019-05-12T13:35:09.788Z,16.95
2019-05-12T13:37:38.169Z,16.61
2019-05-12T13:40:06.722Z,16.45
2019-05-12T13:42:35.780Z,15.56
2019-05-12T13:45:06.809Z,15.79
2019-05-12T13:47:39.643Z,16.29
2019-05-12T13:50:06.582Z,16.68
2019-05-12T13:52:34.784Z,17.07
2019-05-12T13:55:05.684Z,17.67
2019-05-12T13:57:34.144Z,18.34
2019-05-12T14:00:08.607Z,18.30
2019-05-12T14:02:33.608Z,17.32
2019-05-12T14:05:07.127Z,17.60
2019-05-12T14:07:34.401Z,17.42
2019-05-12T14:10:03.621Z,16.83
2019-05-12T14:12:31.905Z,17.32
2019-05-12T14:15:00.130Z,17.68
2019-05-12T14:17:31.011Z,18.11
2019-05-12T14:19:58.297Z,18.29
2019-05-12T14:22:26.598Z,17.96
2019-05-12T14:24:54.772Z,17.57
2019-05-12T14:27:27.036Z,17.92
2019-05-12T14:29:53.735Z,17.64
2019-05-12T14:32:23.933Z,17.94
2019-05-12T14:34:59.400Z,18.23
2019-05-12T14:37:23.931Z,18.18
2019-05-12T14:39:53.655Z,18.50
2019-05-12T14:42:26.076Z,18.66
2019-05-12T14:44:53.599Z,18.51
2019-05-12T14:47:28.342Z,18.12
2019-05-12T14:49:51.542Z,18.02
2019-05-12T14:52:19.749Z,17.62
2019-05-12T14:54:47.958Z,17.27
2019-05-12T14:57:16.169Z,16.52
2019-05-12T14:59:44.369Z,15.63
2019-05-12T15:02:13.616Z,15.34
2019-05-12T15:04:43.566Z,15.05
2019-05-12T15:07:11.802Z,15.26
2019-05-12T15:09:39.999Z,15.01
2019-05-12T15:12:08.206Z,14.54
2019-05-12T15:14:38.154Z,14.60
2019-05-12T15:17:06.352Z,14.87
2019-05-12T15:19:34.547Z,15.17
2019-05-12T15:22:07.646Z,14.98
2019-05-12T15:24:33.667Z,14.63
2019-05-12T15:27:03.715Z,14.52
2019-05-12T15:29:33.768Z,14.37
2019-05-12T15:32:03.819Z,14.35
2019-05-12T15:34:33.730Z,14.56
2019-05-12T15:37:03.986Z,14.64
2019-05-12T15:39:33.538Z,14.45
2019-05-12T15:42:03.534Z,14.43
2019-05-12T15:44:34.448Z,14.24
2019-05-12T15:47:03.702Z,14.30
2019-05-12T15:49:33.465Z,14.40
2019-05-12T15:52:03.331Z,14.84
2019-05-12T15:54:31.186Z,14.94
2019-05-12T15:56:59.390Z,15.58
2019-05-12T15:59:27.592Z,16.09
2019-05-12T16:02:08.593Z,16.95
2019-05-12T16:04:25.727Z,17.48
2019-05-12T16:06:57.718Z,17.29
2019-05-12T16:09:23.908Z,17.20
2019-05-12T16:11:52.123Z,17.17
2019-05-12T16:14:20.324Z,17.17
2019-05-12T16:16:48.544Z,16.91
2019-05-12T16:19:16.771Z,15.95
2019-05-12T16:21:45.600Z,15.61
2019-05-12T16:24:15.633Z,15.36
2019-05-12T16:26:51.741Z,15.19
2019-05-12T16:29:13.904Z,15.19
2019-05-12T16:31:45.600Z,14.94
2019-05-12T16:34:13.838Z,14.87
2019-05-12T16:36:47.487Z,14.91
2019-05-12T16:39:13.475Z,14.87
2019-05-12T16:41:43.860Z,14.48
2019-05-12T16:44:17.432Z,14.27
2019-05-12T16:46:41.650Z,14.16
2019-05-12T16:49:09.867Z,14.05
2019-05-12T16:51:38.063Z,14.03
2019-05-12T16:54:06.277Z,13.68
2019-05-12T16:56:34.480Z,13.83
2019-05-12T16:59:07.118Z,13.94
2019-05-12T17:01:33.505Z,14.11
2019-05-12T17:04:04.173Z,14.20
2019-05-12T17:06:38.495Z,13.85
2019-05-12T17:09:07.487Z,14.00
2019-05-12T17:11:37.419Z,13.78
2019-05-12T17:14:05.666Z,13.87
2019-05-12T17:16:41.894Z,14.17
2019-05-12T17:19:08.438Z,14.60
2019-05-12T17:21:33.725Z,14.82
2019-05-12T17:24:04.024Z,14.46
2019-05-12T17:26:33.449Z,14.70
2019-05-12T17:29:01.840Z,15.44
2019-05-12T17:31:30.043Z,16.21
2019-05-12T17:34:00.286Z,16.96
2019-05-12T17:36:28.197Z,16.93
2019-05-12T17:38:57.842Z,15.59
2019-05-12T17:41:26.090Z,14.76
2019-05-12T17:44:00.887Z,14.46
2019-05-12T17:46:24.223Z,14.19
2019-05-12T17:48:53.283Z,14.14
2019-05-12T17:51:26.859Z,13.93
2019-05-12T17:53:53.878Z,13.57
2019-05-12T17:56:25.149Z,13.51
2019-05-12T17:58:52.972Z,13.29
2019-05-12T18:01:31.125Z,13.30
2019-05-12T18:03:54.043Z,13.35
2019-05-12T18:06:26.962Z,13.39
2019-05-12T18:08:55.477Z,13.64
2019-05-12T18:11:24.030Z,13.83
2019-05-12T18:14:01.401Z,13.70
2019-05-12T18:16:24.848Z,13.83
2019-05-12T18:18:54.765Z,14.04
2019-05-12T18:21:28.449Z,13.89
2019-05-12T18:23:53.680Z,13.71
2019-05-12T18:26:21.967Z,13.84
2019-05-12T18:28:50.186Z,13.96
2019-05-12T18:31:18.395Z,13.73
2019-05-12T18:33:52.079Z,13.59
2019-05-12T18:36:16.543Z,13.60
2019-05-12T18:38:44.912Z,13.37
2019-05-12T18:41:13.926Z,13.07
2019-05-12T18:43:43.489Z,12.76
2019-05-12T18:46:14.123Z,12.41
2019-05-12T18:48:41.843Z,12.16
2019-05-12T18:51:12.221Z,12.04
2019-05-12T18:53:39.970Z,11.90
2019-05-12T18:56:10.243Z,11.78
2019-05-12T18:58:38.120Z,11.65
2019-05-12T19:01:06.798Z,11.50
2019-05-12T19:03:46.839Z,11.45
2019-05-12T19:06:04.937Z,11.33
2019-05-12T19:08:33.173Z,11.29
2019-05-12T19:11:14.995Z,11.28
2019-05-12T19:13:33.651Z,11.14
2019-05-12T19:16:04.549Z,10.97
2019-05-12T19:18:36.815Z,10.87
2019-05-12T19:21:01.093Z,10.86
2019-05-12T19:23:34.969Z,10.83
2019-05-12T19:25:59.234Z,10.74
2019-05-12T19:28:27.440Z,10.71
2019-05-12T19:31:00.873Z,10.65
2019-05-12T19:33:25.630Z,10.57
2019-05-12T19:35:59.794Z,10.49
2019-05-12T19:38:24.106Z,10.45
2019-05-12T19:40:58.735Z,10.37
2019-05-12T19:43:23.752Z,10.27
2019-05-12T19:45:53.605Z,10.08
2019-05-12T19:48:27.113Z,10.05
2019-05-12T19:50:56.634Z,9.95
2019-05-12T19:53:23.897Z,9.91
2019-05-12T19:55:51.973Z,9.81
2019-05-12T19:58:20.168Z,9.76
2019-05-12T20:00:48.374Z,9.71
2019-05-12T20:03:16.571Z,9.61
2019-05-12T20:05:44.779Z,9.48
2019-05-12T20:08:13.744Z,9.37
2019-05-12T20:10:44.620Z,9.30
2019-05-12T20:13:13.645Z,9.24
2019-05-12T20:15:43.706Z,9.19
2019-05-12T20:18:14.468Z,9.16
2019-05-12T20:20:44.600Z,9.07
2019-05-12T20:23:14.132Z,8.92
2019-05-12T20:25:44.249Z,8.84
2019-05-12T20:28:14.410Z,8.81
2019-05-12T20:30:43.863Z,8.64
2019-05-12T20:33:13.756Z,8.57
2019-05-12T20:35:45.137Z,8.48
2019-05-12T20:38:14.879Z,8.31
2019-05-12T20:40:43.246Z,8.20
2019-05-12T20:43:14.653Z,8.08
2019-05-12T20:45:42.254Z,7.88
2019-05-12T20:48:10.736Z,7.94
2019-05-12T20:50:39.151Z,7.96
2019-05-12T20:53:07.561Z,7.88
2019-05-12T20:55:41.222Z,7.86
2019-05-12T20:58:06.135Z,7.86
2019-05-12T21:00:38.981Z,7.83
2019-05-12T21:03:04.708Z,7.72
2019-05-12T21:05:34.316Z,7.70
2019-05-12T21:08:10.954Z,7.68
2019-05-12T21:10:34.150Z,7.64
2019-05-12T21:13:02.694Z,7.52
2019-05-12T21:15:37.333Z,7.53
2019-05-12T21:18:04.467Z,7.50
2019-05-12T21:20:33.679Z,7.46
2019-05-12T21:23:01.516Z,7.42
2019-05-12T21:25:29.922Z,7.33
2019-05-12T21:28:02.649Z,7.31
2019-05-12T21:30:28.490Z,7.28
2019-05-12T21:33:01.348Z,7.20
2019-05-12T21:35:32.079Z,7.16
2019-05-12T21:37:57.239Z,7.09
2019-05-12T21:40:30.222Z,7.06
2019-05-12T21:42:55.794Z,7.10
2019-05-12T21:45:26.752Z,7.00
2019-05-12T21:47:56.622Z,6.88
2019-05-12T21:50:32.409Z,6.87
2019-05-12T21:52:59.506Z,6.84
2019-05-12T21:55:26.634Z,6.80
2019-05-12T21:57:54.886Z,6.70
2019-05-12T22:00:38.944Z,6.71
2019-05-12T22:03:12.336Z,6.59
2019-05-12T22:05:51.010Z,6.44
2019-05-12T22:08:17.576Z,6.29
2019-05-12T22:10:39.468Z,6.17
2019-05-12T22:13:14.416Z,6.03
2019-05-12T22:15:38.043Z,6.00
2019-05-12T22:18:06.452Z,5.99
2019-05-12T22:20:35.998Z,5.95
2019-05-12T22:23:10.226Z,5.93
2019-05-12T22:25:35.190Z,5.99
2019-05-12T22:28:08.276Z,5.90
2019-05-12T22:30:34.852Z,5.84
2019-05-12T22:33:08.300Z,5.83
2019-05-12T22:35:33.804Z,5.83
2019-05-12T22:38:09.349Z,5.83
2019-05-12T22:40:32.350Z,5.74
2019-05-12T22:43:01.372Z,5.68
2019-05-12T22:45:36.180Z,5.64
2019-05-12T22:48:03.690Z,5.47
2019-05-12T22:50:33.233Z,5.45
2019-05-12T22:53:01.298Z,5.25
2019-05-12T22:55:32.545Z,5.12
2019-05-12T22:57:59.839Z,4.96
2019-05-12T23:00:28.381Z,4.94
2019-05-12T23:03:00.588Z,4.94
2019-05-12T23:05:26.929Z,4.99
2019-05-12T23:08:00.158Z,4.99
2019-05-12T23:10:25.490Z,4.92
2019-05-12T23:12:59.770Z,4.85
2019-05-12T23:15:24.386Z,4.68
2019-05-12T23:17:53.236Z,4.47
2019-05-12T23:20:25.533Z,4.49
2019-05-12T23:22:54.246Z,4.53
2019-05-12T23:25:24.283Z,4.51
2019-05-12T23:27:54.084Z,4.47
2019-05-12T23:30:24.224Z,4.38
2019-05-12T23:32:53.018Z,4.26
2019-05-12T23:35:21.500Z,4.19
2019-05-12T23:37:49.931Z,4.20
2019-05-12T23:40:18.356Z,4.25
2019-05-12T23:42:46.782Z,4.16
2019-05-12T23:45:15.320Z,3.98
2019-05-12T23:47:44.133Z,3.97
2019-05-12T23:50:14.147Z,3.81
2019-05-12T23:52:44.087Z,3.86
2019-05-12T23:55:14.028Z,3.84
2019-05-12T23:57:44.464Z,3.81
